createdAt,value
2022-08-21T00:00:55.087Z,14.6
2022-08-21T00:01:55.269Z,14.6
2022-08-21T00:02:55.069Z,14.6
2022-08-21T00:03:55.059Z,14.6
2022-08-21T00:04:56.537Z,14.6
2022-08-21T00:05:55.070Z,14.6
2022-08-21T00:06:55.082Z,14.6
2022-08-21T00:07:55.061Z,14.6
2022-08-21T00:08:55.069Z,14.6
2022-08-21T00:09:55.075Z,14.6
2022-08-21T00:10:55.081Z,14.6
2022-08-21T00:11:55.097Z,14.6
2022-08-21T00:12:55.104Z,14.5
2022-08-21T00:13:55.077Z,14.6
2022-08-21T00:14:57.157Z,14.5
2022-08-21T00:15:55.061Z,14.5
2022-08-21T00:16:55.119Z,14.5
2022-08-21T00:17:55.063Z,14.5
2022-08-21T00:18:55.062Z,14.5
2022-08-21T00:19:55.061Z,14.5
2022-08-21T00:20:55.076Z,14.5
2022-08-21T00:21:55.122Z,14.5
2022-08-21T00:22:55.138Z,14.4
2022-08-21T00:23:55.189Z,14.4
2022-08-21T00:24:55.070Z,14.4
2022-08-21T00:25:55.067Z,14.4
2022-08-21T00:26:55.089Z,14.4
2022-08-21T00:27:55.078Z,14.4
2022-08-21T00:28:55.079Z,14.4
2022-08-21T00:29:55.070Z,14.4
2022-08-21T00:30:55.108Z,14.4
2022-08-21T00:31:55.066Z,14.3
2022-08-21T00:32:55.197Z,14.3
2022-08-21T00:33:56.287Z,14.3
2022-08-21T00:34:55.927Z,14.3
2022-08-21T00:35:55.773Z,14.3
2022-08-21T00:36:55.386Z,14.3
2022-08-21T00:37:55.072Z,14.3
2022-08-21T00:38:55.066Z,14.3
2022-08-21T00:39:55.398Z,14.3
2022-08-21T00:40:55.111Z,14.3
2022-08-21T00:41:55.423Z,14.2
2022-08-21T00:42:55.169Z,14.2
2022-08-21T00:43:55.162Z,14.2
2022-08-21T00:44:55.069Z,14.2
2022-08-21T00:45:55.316Z,14.2
2022-08-21T00:46:55.221Z,14.2
2022-08-21T00:47:55.465Z,14.1
2022-08-21T00:48:57.224Z,14.1
2022-08-21T00:49:55.468Z,14.1
2022-08-21T00:50:55.145Z,14.1
2022-08-21T00:51:55.084Z,14.1
2022-08-21T00:52:55.402Z,14.1
2022-08-21T00:53:55.030Z,14
2022-08-21T00:54:55.041Z,14
2022-08-21T00:55:55.674Z,14
2022-08-21T00:56:55.492Z,14
2022-08-21T00:57:55.109Z,14
2022-08-21T00:58:55.127Z,14
2022-08-21T00:59:55.193Z,14
2022-08-21T01:00:55.193Z,14
2022-08-21T01:01:55.364Z,14
2022-08-21T01:02:55.289Z,13.9
2022-08-21T01:03:55.066Z,13.9
2022-08-21T01:04:55.065Z,13.9
2022-08-21T01:05:55.068Z,13.9
2022-08-21T01:06:55.139Z,13.9
2022-08-21T01:07:55.156Z,13.9
2022-08-21T01:08:55.170Z,13.9
2022-08-21T01:09:55.071Z,13.9
2022-08-21T01:10:55.094Z,13.9
2022-08-21T01:11:55.362Z,13.9
2022-08-21T01:12:55.138Z,13.9
2022-08-21T01:13:55.111Z,13.9
2022-08-21T01:14:55.076Z,13.9
2022-08-21T01:15:55.064Z,13.9
2022-08-21T01:16:55.064Z,13.9
2022-08-21T01:17:55.078Z,13.8
2022-08-21T01:18:55.110Z,13.8
2022-08-21T01:19:55.200Z,13.8
2022-08-21T01:20:55.065Z,13.8
2022-08-21T01:21:55.064Z,13.8
2022-08-21T01:22:55.120Z,13.8
2022-08-21T01:23:55.091Z,13.8
2022-08-21T01:24:55.073Z,13.8
2022-08-21T01:25:55.065Z,13.8
2022-08-21T01:26:55.084Z,13.8
2022-08-21T01:27:55.061Z,13.8
2022-08-21T01:28:55.111Z,13.8
2022-08-21T01:29:55.087Z,13.8
2022-08-21T01:30:55.075Z,13.8
2022-08-21T01:31:55.069Z,13.8
2022-08-21T01:32:55.149Z,13.8
2022-08-21T01:33:55.103Z,13.8
2022-08-21T01:34:55.068Z,13.8
2022-08-21T01:35:55.058Z,13.8
2022-08-21T01:36:55.060Z,13.7
2022-08-21T01:37:55.075Z,13.7
2022-08-21T01:38:55.082Z,13.7
2022-08-21T01:39:55.171Z,13.7
2022-08-21T01:40:55.077Z,13.7
2022-08-21T01:41:55.098Z,13.7
2022-08-21T01:42:55.089Z,13.7
2022-08-21T01:43:55.065Z,13.7
2022-08-21T01:44:56.287Z,13.7
2022-08-21T01:45:55.069Z,13.6
2022-08-21T01:46:55.079Z,13.7
2022-08-21T01:47:55.067Z,13.7
2022-08-21T01:48:55.060Z,13.7
2022-08-21T01:49:55.088Z,13.7
2022-08-21T01:50:56.756Z,13.7
2022-08-21T01:51:55.145Z,13.7
2022-08-21T01:52:55.077Z,13.7
2022-08-21T01:53:55.060Z,13.7
2022-08-21T01:54:55.601Z,13.7
2022-08-21T01:55:55.064Z,13.7
2022-08-21T01:56:55.067Z,13.7
2022-08-21T01:57:55.064Z,13.7
2022-08-21T01:58:55.079Z,13.7
2022-08-21T01:59:55.063Z,13.7
2022-08-21T02:00:55.119Z,13.8
2022-08-21T02:01:55.080Z,13.8
2022-08-21T02:02:55.137Z,13.8
2022-08-21T02:03:55.072Z,13.8
2022-08-21T02:04:55.073Z,13.8
2022-08-21T02:05:55.057Z,13.8
2022-08-21T02:06:55.077Z,13.9
2022-08-21T02:07:55.063Z,13.9
2022-08-21T02:08:55.073Z,13.9
2022-08-21T02:09:55.071Z,14
2022-08-21T02:10:55.062Z,14
2022-08-21T02:11:55.065Z,14
2022-08-21T02:12:55.123Z,14
2022-08-21T02:13:55.081Z,14.1
2022-08-21T02:14:55.068Z,14.1
2022-08-21T02:15:55.074Z,14.1
2022-08-21T02:16:55.714Z,14.1
2022-08-21T02:17:55.072Z,14.2
2022-08-21T02:18:55.090Z,14.2
2022-08-21T02:19:55.123Z,14.2
2022-08-21T02:20:55.301Z,14.3
2022-08-21T02:21:55.060Z,14.3
2022-08-21T02:22:55.144Z,14.3
2022-08-21T02:23:55.078Z,14.4
2022-08-21T02:24:55.398Z,14.4
2022-08-21T02:25:55.029Z,14.4
2022-08-21T02:26:55.148Z,14.5
2022-08-21T02:27:55.033Z,14.5
2022-08-21T02:28:55.360Z,14.6
2022-08-21T02:29:55.525Z,14.6
2022-08-21T02:30:55.072Z,14.6
2022-08-21T02:31:55.072Z,14.7
2022-08-21T02:32:55.387Z,14.7
2022-08-21T02:33:55.119Z,14.7
2022-08-21T02:34:55.069Z,14.8
2022-08-21T02:35:55.062Z,14.8
2022-08-21T02:36:59.491Z,14.8
2022-08-21T02:37:55.054Z,14.9
2022-08-21T02:38:55.083Z,14.9
2022-08-21T02:39:55.121Z,14.9
2022-08-21T02:40:55.076Z,15
2022-08-21T02:41:55.070Z,15
2022-08-21T02:42:55.072Z,15
2022-08-21T02:43:55.098Z,15.1
2022-08-21T02:44:55.061Z,15.1
2022-08-21T02:45:55.073Z,15.1
2022-08-21T02:46:55.074Z,15.1
2022-08-21T02:47:55.181Z,15.1
2022-08-21T02:48:55.087Z,15.1
2022-08-21T02:49:55.085Z,15.1
2022-08-21T02:50:55.094Z,15.2
2022-08-21T02:51:55.063Z,15.2
2022-08-21T02:52:55.372Z,15.2
2022-08-21T02:53:55.102Z,15.2
2022-08-21T02:54:55.074Z,15.2
2022-08-21T02:55:55.088Z,15.3
2022-08-21T02:56:55.073Z,15.3
2022-08-21T02:57:55.084Z,15.3
2022-08-21T02:58:55.056Z,15.3
2022-08-21T02:59:55.075Z,15.4
2022-08-21T03:00:55.053Z,15.4
2022-08-21T03:01:55.136Z,15.4
2022-08-21T03:02:55.118Z,15.4
2022-08-21T03:03:55.057Z,15.4
2022-08-21T03:04:55.036Z,15.4
2022-08-21T03:05:55.067Z,15.5
2022-08-21T03:06:55.068Z,15.5
2022-08-21T03:07:55.136Z,15.5
2022-08-21T03:08:55.378Z,15.5
2022-08-21T03:09:56.319Z,15.5
2022-08-21T03:10:55.658Z,15.5
2022-08-21T03:11:55.063Z,15.5
2022-08-21T03:12:55.108Z,15.5
2022-08-21T03:13:55.065Z,15.6
2022-08-21T03:14:55.076Z,15.6
2022-08-21T03:15:55.079Z,15.6
2022-08-21T03:16:55.062Z,15.6
2022-08-21T03:17:55.108Z,15.6
2022-08-21T03:18:55.072Z,15.6
2022-08-21T03:19:55.081Z,15.6
2022-08-21T03:20:55.191Z,15.6
2022-08-21T03:21:55.053Z,15.6
2022-08-21T03:22:55.065Z,15.6
2022-08-21T03:23:55.066Z,15.6
2022-08-21T03:24:55.070Z,15.6
2022-08-21T03:25:55.063Z,15.6
2022-08-21T03:26:55.075Z,15.6
2022-08-21T03:27:58.751Z,15.6
2022-08-21T03:28:55.103Z,15.6
2022-08-21T03:29:55.082Z,15.6
2022-08-21T03:30:55.105Z,15.6
2022-08-21T03:31:55.071Z,15.6
2022-08-21T03:32:55.121Z,15.5
2022-08-21T03:33:55.093Z,15.5
2022-08-21T03:34:55.069Z,15.5
2022-08-21T03:35:55.053Z,15.5
2022-08-21T03:36:55.080Z,15.5
2022-08-21T03:37:55.038Z,15.5
2022-08-21T03:38:55.158Z,15.5
2022-08-21T03:39:55.051Z,15.5
2022-08-21T03:40:55.133Z,15.5
2022-08-21T03:41:55.259Z,15.5
2022-08-21T03:42:55.522Z,15.5
2022-08-21T03:43:55.642Z,15.5
2022-08-21T03:44:55.865Z,15.5
2022-08-21T03:45:56.013Z,15.5
2022-08-21T03:46:55.033Z,15.5
2022-08-21T03:47:55.249Z,15.4
2022-08-21T03:48:55.492Z,15.4
2022-08-21T03:49:55.933Z,15.5
2022-08-21T03:50:55.069Z,15.4
2022-08-21T03:51:55.581Z,15.4
2022-08-21T03:52:55.114Z,15.4
2022-08-21T03:53:55.112Z,15.4
2022-08-21T03:54:55.174Z,15.4
2022-08-21T03:55:55.068Z,15.4
2022-08-21T03:56:55.158Z,15.4
2022-08-21T03:57:55.049Z,15.3
2022-08-21T03:58:55.186Z,15.3
2022-08-21T03:59:55.035Z,15.3
2022-08-21T04:00:55.064Z,15.3
2022-08-21T04:01:55.359Z,15.3
2022-08-21T04:02:55.133Z,15.3
2022-08-21T04:03:55.163Z,15.3
2022-08-21T04:04:55.651Z,15.3
2022-08-21T04:05:55.056Z,15.3
2022-08-21T04:06:55.296Z,15.3
2022-08-21T04:07:55.119Z,15.3
2022-08-21T04:08:55.047Z,15.2
2022-08-21T04:09:55.188Z,15.2
2022-08-21T04:10:55.081Z,15.2
2022-08-21T04:11:55.246Z,15.2
2022-08-21T04:12:55.396Z,15.2
2022-08-21T04:13:55.068Z,15.2
2022-08-21T04:14:56.071Z,15.2
2022-08-21T04:15:55.495Z,15.1
2022-08-21T04:16:55.065Z,15.1
2022-08-21T04:17:55.265Z,15.1
2022-08-21T04:18:55.090Z,15.1
2022-08-21T04:19:55.077Z,15.1
2022-08-21T04:20:55.079Z,15.1
2022-08-21T04:21:55.146Z,15
2022-08-21T04:22:55.106Z,15
2022-08-21T04:23:55.185Z,15
2022-08-21T04:24:55.078Z,15
2022-08-21T04:25:55.231Z,14.9
2022-08-21T04:26:55.587Z,14.9
2022-08-21T04:27:55.086Z,14.9
2022-08-21T04:28:55.086Z,14.8
2022-08-21T04:29:55.066Z,14.8
2022-08-21T04:30:55.064Z,14.8
2022-08-21T04:31:55.054Z,14.7
2022-08-21T04:32:55.128Z,14.7
2022-08-21T04:33:55.079Z,14.7
2022-08-21T04:34:55.065Z,14.6
2022-08-21T04:35:55.069Z,14.6
2022-08-21T04:36:55.082Z,14.6
2022-08-21T04:37:55.062Z,14.5
2022-08-21T04:38:55.107Z,14.5
2022-08-21T04:39:55.092Z,14.4
2022-08-21T04:40:55.058Z,14.4
2022-08-21T04:41:55.064Z,14.4
2022-08-21T04:42:55.122Z,14.3
2022-08-21T04:43:55.078Z,14.3
2022-08-21T04:44:55.067Z,14.3
2022-08-21T04:45:55.067Z,14.3
2022-08-21T04:46:55.067Z,14.2
2022-08-21T04:47:55.074Z,14.2
2022-08-21T04:48:55.087Z,14.2
2022-08-21T04:49:55.077Z,14.2
2022-08-21T04:50:55.060Z,14.2
2022-08-21T04:51:55.066Z,14.1
2022-08-21T04:52:55.106Z,14.1
2022-08-21T04:53:55.109Z,14.1
2022-08-21T04:54:55.125Z,14.1
2022-08-21T04:55:55.066Z,14.1
2022-08-21T04:56:55.070Z,14.1
2022-08-21T04:57:55.076Z,14.1
2022-08-21T04:58:55.082Z,14
2022-08-21T04:59:55.058Z,14
2022-08-21T05:00:55.074Z,14
2022-08-21T05:01:55.104Z,14
2022-08-21T05:02:55.050Z,14
2022-08-21T05:03:55.092Z,14
2022-08-21T05:04:55.074Z,14
2022-08-21T05:05:55.052Z,14
2022-08-21T05:06:55.063Z,14
2022-08-21T05:07:55.065Z,14
2022-08-21T05:08:55.866Z,14
2022-08-21T05:09:55.102Z,14.1
2022-08-21T05:10:59.744Z,14
2022-08-21T05:11:55.085Z,14.1
2022-08-21T05:12:55.140Z,14
2022-08-21T05:13:56.961Z,14.1
2022-08-21T05:14:55.062Z,14.1
2022-08-21T05:15:55.061Z,14.1
2022-08-21T05:16:55.067Z,14.1
2022-08-21T05:17:57.262Z,14.1
2022-08-21T05:18:55.048Z,14.1
2022-08-21T05:19:55.076Z,14.2
2022-08-21T05:20:55.061Z,14.2
2022-08-21T05:21:55.079Z,14.2
2022-08-21T05:22:55.174Z,14.2
2022-08-21T05:23:55.080Z,14.2
2022-08-21T05:24:55.076Z,14.3
2022-08-21T05:25:55.057Z,14.3
2022-08-21T05:26:55.067Z,14.3
2022-08-21T05:27:55.062Z,14.3
2022-08-21T05:28:55.062Z,14.3
2022-08-21T05:29:55.066Z,14.4
2022-08-21T05:30:55.092Z,14.4
2022-08-21T05:31:55.081Z,14.4
2022-08-21T05:32:55.092Z,14.5
2022-08-21T05:33:55.951Z,14.5
2022-08-21T05:34:55.065Z,14.5
2022-08-21T05:35:55.078Z,14.5
2022-08-21T05:36:55.073Z,14.6
2022-08-21T05:37:55.069Z,14.6
2022-08-21T05:38:55.049Z,14.7
2022-08-21T05:40:05.483Z,14.7
2022-08-21T05:40:55.106Z,14.7
2022-08-21T05:41:55.178Z,14.8
2022-08-21T05:42:55.466Z,14.8
2022-08-21T05:43:55.037Z,14.8
2022-08-21T05:44:55.672Z,14.9
2022-08-21T05:45:55.064Z,14.9
2022-08-21T05:46:55.067Z,15
2022-08-21T05:47:55.253Z,15
2022-08-21T05:48:55.062Z,15
2022-08-21T05:49:55.058Z,15.1
2022-08-21T05:50:55.072Z,15.1
2022-08-21T05:51:55.066Z,15.2
2022-08-21T05:52:56.633Z,15.2
2022-08-21T05:53:55.072Z,15.2
2022-08-21T05:54:55.069Z,15.3
2022-08-21T05:55:55.082Z,15.3
2022-08-21T05:56:55.060Z,15.3
2022-08-21T05:57:55.056Z,15.4
2022-08-21T05:58:55.064Z,15.4
2022-08-21T05:59:55.058Z,15.5
2022-08-21T06:00:55.068Z,15.5
2022-08-21T06:01:55.111Z,15.6
2022-08-21T06:02:55.179Z,15.6
2022-08-21T06:03:56.755Z,15.7
2022-08-21T06:04:55.073Z,15.7
2022-08-21T06:05:55.068Z,15.8
2022-08-21T06:06:55.299Z,15.8
2022-08-21T06:07:55.053Z,15.8
2022-08-21T06:08:55.059Z,15.9
2022-08-21T06:09:55.083Z,15.9
2022-08-21T06:10:55.066Z,16
2022-08-21T06:11:55.066Z,16
2022-08-21T06:12:55.107Z,16
2022-08-21T06:13:55.066Z,16.1
2022-08-21T06:14:55.064Z,16.1
2022-08-21T06:15:55.080Z,16.1
2022-08-21T06:16:55.074Z,16.2
2022-08-21T06:17:55.073Z,16.3
2022-08-21T06:18:57.497Z,16.3
2022-08-21T06:19:55.048Z,16.3
2022-08-21T06:20:55.029Z,16.4
2022-08-21T06:21:55.232Z,16.4
2022-08-21T06:22:55.406Z,16.5
2022-08-21T06:23:55.952Z,16.5
2022-08-21T06:24:56.172Z,16.5
2022-08-21T06:25:56.520Z,16.6
2022-08-21T06:26:55.080Z,16.6
2022-08-21T06:27:55.069Z,16.7
2022-08-21T06:28:55.110Z,16.7
2022-08-21T06:29:55.060Z,16.7
2022-08-21T06:30:55.064Z,16.8
2022-08-21T06:31:55.056Z,16.8
2022-08-21T06:32:55.107Z,16.9
2022-08-21T06:33:55.076Z,16.9
2022-08-21T06:34:55.061Z,16.9
2022-08-21T06:35:55.061Z,17
2022-08-21T06:36:55.084Z,17
2022-08-21T06:37:55.084Z,17.2
2022-08-21T06:38:55.100Z,17.2
2022-08-21T06:39:55.382Z,17.3
2022-08-21T06:40:55.066Z,17.3
2022-08-21T06:41:55.073Z,17.4
2022-08-21T06:42:55.144Z,17.4
2022-08-21T06:43:55.091Z,17.4
2022-08-21T06:44:55.066Z,17.5
2022-08-21T06:45:55.032Z,17.5
2022-08-21T06:46:55.195Z,17.5
2022-08-21T06:47:55.061Z,17.6
2022-08-21T06:48:55.065Z,17.7
2022-08-21T06:49:55.094Z,17.7
2022-08-21T06:50:55.316Z,17.7
2022-08-21T06:51:55.185Z,17.8
2022-08-21T06:52:55.101Z,17.8
2022-08-21T06:53:55.207Z,17.9
2022-08-21T06:54:55.501Z,17.9
2022-08-21T06:55:55.767Z,18
2022-08-21T06:56:55.949Z,18
2022-08-21T06:57:55.069Z,18.1
2022-08-21T06:58:55.069Z,18.1
2022-08-21T06:59:55.072Z,18.1
2022-08-21T07:00:58.843Z,18.2
2022-08-21T07:01:55.100Z,18.2
2022-08-21T07:02:55.244Z,18.3
2022-08-21T07:03:55.078Z,18.3
2022-08-21T07:04:55.069Z,18.4
2022-08-21T07:05:55.059Z,18.4
2022-08-21T07:06:55.066Z,18.4
2022-08-21T07:07:55.092Z,18.4
2022-08-21T07:08:55.066Z,18.5
2022-08-21T07:09:55.097Z,18.5
2022-08-21T07:10:55.047Z,18.7
2022-08-21T07:11:55.211Z,18.7
2022-08-21T07:13:00.709Z,18.7
2022-08-21T07:13:55.317Z,18.8
2022-08-21T07:14:55.027Z,18.8
2022-08-21T07:15:55.163Z,18.9
2022-08-21T07:16:55.488Z,18.9
2022-08-21T07:17:55.062Z,18.9
2022-08-21T07:18:55.280Z,19
2022-08-21T07:19:55.056Z,19
2022-08-21T07:20:55.366Z,19.1
2022-08-21T07:21:55.028Z,19.1
2022-08-21T07:22:55.202Z,19.1
2022-08-21T07:23:55.039Z,19.2
2022-08-21T07:24:55.168Z,19.2
2022-08-21T07:25:55.245Z,19.2
2022-08-21T07:26:55.386Z,19.3
2022-08-21T07:27:55.129Z,19.3
2022-08-21T07:28:55.300Z,19.4
2022-08-21T07:29:55.443Z,19.4
2022-08-21T07:30:55.069Z,19.4
2022-08-21T07:31:55.055Z,19.5
2022-08-21T07:32:55.385Z,19.5
2022-08-21T07:33:55.043Z,19.5
2022-08-21T07:34:55.106Z,19.7
2022-08-21T07:35:55.060Z,19.7
2022-08-21T07:36:55.121Z,19.8
2022-08-21T07:37:55.057Z,19.8
2022-08-21T07:38:55.140Z,19.8
2022-08-21T07:39:55.113Z,19.9
2022-08-21T07:40:55.313Z,19.9
2022-08-21T07:41:55.071Z,19.9
2022-08-21T07:42:55.103Z,20
2022-08-21T07:43:55.064Z,20
2022-08-21T07:44:55.330Z,20.1
2022-08-21T07:45:55.075Z,20.1
2022-08-21T07:46:55.071Z,20.2
2022-08-21T07:47:57.417Z,20.2
2022-08-21T07:48:55.062Z,20.2
2022-08-21T07:49:55.078Z,20.3
2022-08-21T07:50:55.058Z,20.3
2022-08-21T07:51:55.099Z,20.3
2022-08-21T07:52:55.079Z,20.5
2022-08-21T07:53:55.064Z,20.5
2022-08-21T07:54:55.066Z,20.6
2022-08-21T07:55:55.054Z,20.6
2022-08-21T07:56:55.064Z,20.6
2022-08-21T07:57:55.045Z,20.7
2022-08-21T07:58:55.061Z,20.7
2022-08-21T07:59:55.095Z,20.8
2022-08-21T08:00:55.105Z,20.7
2022-08-21T08:01:55.064Z,20.8
2022-08-21T08:02:55.158Z,20.8
2022-08-21T08:03:55.068Z,20.8
2022-08-21T08:04:55.095Z,20.9
2022-08-21T08:05:55.055Z,20.9
2022-08-21T08:06:55.058Z,20.9
2022-08-21T08:07:55.074Z,21
2022-08-21T08:08:55.073Z,21
2022-08-21T08:09:55.084Z,21
2022-08-21T08:10:55.087Z,21
2022-08-21T08:11:55.086Z,21.2
2022-08-21T08:12:55.101Z,21.2
2022-08-21T08:13:55.073Z,21.2
2022-08-21T08:14:55.107Z,21.3
2022-08-21T08:15:55.068Z,21.3
2022-08-21T08:16:55.059Z,21.3
2022-08-21T08:17:55.052Z,21.3
2022-08-21T08:18:55.066Z,21.3
2022-08-21T08:19:55.082Z,21.4
2022-08-21T08:20:55.061Z,21.4
2022-08-21T08:21:55.058Z,21.5
2022-08-21T08:22:55.149Z,21.5
2022-08-21T08:23:55.054Z,21.5
2022-08-21T08:24:55.095Z,21.6
2022-08-21T08:25:55.082Z,21.6
2022-08-21T08:26:55.175Z,21.8
2022-08-21T08:27:55.066Z,21.8
2022-08-21T08:28:55.067Z,21.8
2022-08-21T08:29:55.075Z,21.9
2022-08-21T08:30:55.061Z,21.9
2022-08-21T08:31:55.066Z,21.9
2022-08-21T08:32:55.113Z,21.9
2022-08-21T08:33:55.074Z,22
2022-08-21T08:34:55.105Z,22
2022-08-21T08:35:55.074Z,22.1
2022-08-21T08:36:55.093Z,22.1
2022-08-21T08:37:55.069Z,22.3
2022-08-21T08:38:55.188Z,22.3
2022-08-21T08:39:55.127Z,22.4
2022-08-21T08:40:55.068Z,22.4
2022-08-21T08:41:55.100Z,22.5
2022-08-21T08:42:55.111Z,22.5
2022-08-21T08:43:55.067Z,22.6
2022-08-21T08:44:55.061Z,22.6
2022-08-21T08:45:55.066Z,22.7
2022-08-21T08:46:57.392Z,22.7
2022-08-21T08:47:55.070Z,22.9
2022-08-21T08:48:55.068Z,22.9
2022-08-21T08:49:55.194Z,22.9
2022-08-21T08:50:55.044Z,22.9
2022-08-21T08:51:55.064Z,22.9
2022-08-21T08:52:55.052Z,22.9
2022-08-21T08:53:55.044Z,23
2022-08-21T08:54:55.080Z,23
2022-08-21T08:55:55.035Z,23.1
2022-08-21T08:56:55.266Z,23.1
2022-08-21T08:57:55.028Z,23.2
2022-08-21T08:58:55.249Z,23.2
2022-08-21T08:59:55.383Z,23.2
2022-08-21T09:00:55.158Z,23.2
2022-08-21T09:01:55.442Z,23.2
2022-08-21T09:02:55.203Z,23.2
2022-08-21T09:03:55.071Z,23.2
2022-08-21T09:04:55.066Z,23.2
2022-08-21T09:05:55.097Z,23.2
2022-08-21T09:06:55.084Z,23.1
2022-08-21T09:07:55.067Z,23.1
2022-08-21T09:08:55.062Z,23.1
2022-08-21T09:09:55.080Z,23.1
2022-08-21T09:10:55.072Z,23.1
2022-08-21T09:11:55.069Z,23
2022-08-21T09:12:55.122Z,22.9
2022-08-21T09:13:55.067Z,23
2022-08-21T09:14:55.065Z,22.9
2022-08-21T09:15:55.060Z,22.9
2022-08-21T09:16:55.066Z,22.9
2022-08-21T09:17:55.059Z,22.9
2022-08-21T09:18:55.059Z,22.9
2022-08-21T09:19:55.094Z,22.9
2022-08-21T09:20:55.079Z,23
2022-08-21T09:21:55.080Z,23
2022-08-21T09:22:55.195Z,23
2022-08-21T09:23:55.071Z,23.1
2022-08-21T09:24:55.078Z,23.1
2022-08-21T09:25:55.062Z,23.2
2022-08-21T09:26:55.063Z,23.4
2022-08-21T09:27:55.059Z,23.4
2022-08-21T09:28:55.059Z,23.5
2022-08-21T09:29:55.119Z,23.5
2022-08-21T09:30:55.034Z,23.6
2022-08-21T09:31:55.075Z,23.6
2022-08-21T09:32:55.275Z,23.6
2022-08-21T09:33:55.460Z,23.8
2022-08-21T09:34:55.681Z,23.8
2022-08-21T09:35:56.169Z,23.8
2022-08-21T09:36:56.667Z,23.9
2022-08-21T09:37:55.717Z,23.9
2022-08-21T09:38:55.061Z,24
2022-08-21T09:39:55.166Z,24.1
2022-08-21T09:40:55.058Z,24.1
2022-08-21T09:41:55.060Z,24.3
2022-08-21T09:42:55.182Z,24.3
2022-08-21T09:43:55.056Z,24.4
2022-08-21T09:44:55.071Z,24.5
2022-08-21T09:45:55.082Z,24.5
2022-08-21T09:46:55.154Z,24.5
2022-08-21T09:47:55.070Z,24.5
2022-08-21T09:48:55.056Z,24.5
2022-08-21T09:49:55.066Z,24.5
2022-08-21T09:50:55.067Z,24.5
2022-08-21T09:51:55.067Z,24.5
2022-08-21T09:52:55.147Z,24.5
2022-08-21T09:53:55.042Z,24.5
2022-08-21T09:54:55.075Z,24.5
2022-08-21T09:55:55.123Z,24.5
2022-08-21T09:56:55.078Z,24.7
2022-08-21T09:57:55.343Z,24.5
2022-08-21T09:58:55.083Z,24.7
2022-08-21T09:59:55.145Z,24.7
2022-08-21T10:00:55.043Z,24.5
2022-08-21T10:01:55.257Z,24.7
2022-08-21T10:02:55.525Z,24.7
2022-08-21T10:03:55.778Z,24.7
2022-08-21T10:04:56.063Z,24.7
2022-08-21T10:05:55.097Z,24.8
2022-08-21T10:06:55.876Z,24.7
2022-08-21T10:07:55.163Z,24.7
2022-08-21T10:08:55.091Z,24.7
2022-08-21T10:09:55.217Z,24.5
2022-08-21T10:10:56.456Z,24.5
2022-08-21T10:11:55.051Z,24.4
2022-08-21T10:12:55.091Z,24.3
2022-08-21T10:13:55.053Z,24.3
2022-08-21T10:14:55.086Z,24.3
2022-08-21T10:15:55.071Z,24.3
2022-08-21T10:16:55.070Z,24.3
2022-08-21T10:17:55.063Z,24.3
2022-08-21T10:18:55.071Z,24.3
2022-08-21T10:19:55.101Z,24.4
2022-08-21T10:20:55.062Z,24.5
2022-08-21T10:21:55.058Z,24.5
2022-08-21T10:22:55.097Z,24.5
2022-08-21T10:23:55.075Z,24.5
2022-08-21T10:24:55.233Z,24.7
2022-08-21T10:25:56.985Z,24.7
2022-08-21T10:26:55.207Z,24.7
2022-08-21T10:27:55.042Z,24.5
2022-08-21T10:28:55.104Z,24.5
2022-08-21T10:29:55.462Z,24.5
2022-08-21T10:30:55.646Z,24.4
2022-08-21T10:31:55.325Z,24.4
2022-08-21T10:32:55.139Z,24.4
2022-08-21T10:33:55.127Z,24.4
2022-08-21T10:34:55.071Z,24.3
2022-08-21T10:35:55.118Z,24.3
2022-08-21T10:36:55.040Z,24.3
2022-08-21T10:37:55.100Z,24.3
2022-08-21T10:39:12.018Z,24.3
2022-08-21T10:39:55.238Z,24.3
2022-08-21T10:40:55.266Z,24.3
2022-08-21T10:41:55.577Z,24.4
2022-08-21T10:42:55.139Z,24.4
2022-08-21T10:43:55.068Z,24.4
2022-08-21T10:44:55.188Z,24.4
2022-08-21T10:45:55.075Z,24.5
2022-08-21T10:46:55.069Z,24.5
2022-08-21T10:47:57.789Z,24.5
2022-08-21T10:48:55.071Z,24.5
2022-08-21T10:49:55.078Z,24.7
2022-08-21T10:50:55.069Z,24.7
2022-08-21T10:51:55.118Z,24.7
2022-08-21T10:52:55.221Z,24.7
2022-08-21T10:53:55.256Z,24.8
2022-08-21T10:54:55.052Z,24.8
2022-08-21T10:55:55.315Z,24.9
2022-08-21T10:56:55.073Z,24.9
2022-08-21T10:57:55.066Z,24.9
2022-08-21T10:58:55.090Z,25.1
2022-08-21T10:59:55.092Z,25.1
2022-08-21T11:00:55.084Z,25.1
2022-08-21T11:01:55.062Z,25.1
2022-08-21T11:02:55.094Z,24.9
2022-08-21T11:03:55.092Z,24.9
2022-08-21T11:04:55.146Z,24.9
2022-08-21T11:05:55.103Z,24.9
2022-08-21T11:06:55.082Z,24.8
2022-08-21T11:07:55.089Z,24.9
2022-08-21T11:08:55.055Z,24.9
2022-08-21T11:09:55.107Z,24.9
2022-08-21T11:10:58.181Z,24.9
2022-08-21T11:11:59.609Z,24.9
2022-08-21T11:12:55.158Z,24.9
2022-08-21T11:13:55.084Z,24.9
2022-08-21T11:14:55.089Z,24.8
2022-08-21T11:15:55.075Z,24.8
2022-08-21T11:16:55.072Z,24.7
2022-08-21T11:17:55.094Z,24.7
2022-08-21T11:18:55.074Z,24.5
2022-08-21T11:19:55.112Z,24.5
2022-08-21T11:20:55.166Z,24.5
2022-08-21T11:21:55.064Z,24.5
2022-08-21T11:22:56.184Z,24.5
2022-08-21T11:23:55.078Z,24.7
2022-08-21T11:24:55.096Z,24.7
2022-08-21T11:25:55.072Z,24.8
2022-08-21T11:26:55.061Z,24.8
2022-08-21T11:27:55.073Z,24.8
2022-08-21T11:28:55.074Z,24.8
2022-08-21T11:29:55.104Z,24.8
2022-08-21T11:30:55.063Z,24.8
2022-08-21T11:31:55.079Z,24.8
2022-08-21T11:32:55.247Z,24.8
2022-08-21T11:33:55.069Z,24.8
2022-08-21T11:34:55.082Z,24.8
2022-08-21T11:35:55.058Z,24.8
2022-08-21T11:36:55.069Z,24.9
2022-08-21T11:37:55.066Z,24.8
2022-08-21T11:38:55.058Z,24.8
2022-08-21T11:39:55.149Z,24.9
2022-08-21T11:40:55.072Z,24.9
2022-08-21T11:41:55.048Z,24.9
2022-08-21T11:42:55.115Z,24.9
2022-08-21T11:43:55.092Z,24.9
2022-08-21T11:44:55.099Z,24.9
2022-08-21T11:45:55.066Z,24.9
2022-08-21T11:46:55.061Z,25.1
2022-08-21T11:47:55.089Z,25.1
2022-08-21T11:48:55.057Z,25.1
2022-08-21T11:49:55.107Z,25.1
2022-08-21T11:50:55.074Z,25.1
2022-08-21T11:51:55.062Z,25.1
2022-08-21T11:52:55.107Z,25.2
2022-08-21T11:53:55.073Z,25.2
2022-08-21T11:54:55.115Z,25.2
2022-08-21T11:55:55.054Z,25.2
2022-08-21T11:56:55.052Z,25.2
2022-08-21T11:57:55.066Z,25.3
2022-08-21T11:58:55.073Z,25.3
2022-08-21T11:59:55.057Z,25.2
2022-08-21T12:00:55.062Z,25.2
2022-08-21T12:01:55.083Z,25.3
2022-08-21T12:02:55.120Z,25.3
2022-08-21T12:03:55.066Z,25.3
2022-08-21T12:04:55.041Z,25.3
2022-08-21T12:05:55.075Z,25.3
2022-08-21T12:06:55.050Z,25.3
2022-08-21T12:07:58.088Z,25.3
2022-08-21T12:08:55.037Z,25.2
2022-08-21T12:09:55.177Z,25.3
2022-08-21T12:10:55.180Z,25.3
2022-08-21T12:11:55.666Z,25.3
2022-08-21T12:12:55.113Z,25.3
2022-08-21T12:13:55.207Z,25.3
2022-08-21T12:14:55.400Z,25.2
2022-08-21T12:15:55.078Z,25.3
2022-08-21T12:16:55.063Z,25.3
2022-08-21T12:17:55.060Z,25.3
2022-08-21T12:18:55.053Z,25.3
2022-08-21T12:19:55.063Z,25.3
2022-08-21T12:20:55.061Z,25.3
2022-08-21T12:21:55.064Z,25.5
2022-08-21T12:22:55.119Z,25.5
2022-08-21T12:23:55.075Z,25.5
2022-08-21T12:24:55.087Z,25.5
2022-08-21T12:25:55.088Z,25.5
2022-08-21T12:26:55.110Z,25.6
2022-08-21T12:27:55.093Z,25.6
2022-08-21T12:28:55.061Z,25.6
2022-08-21T12:29:55.056Z,25.6
2022-08-21T12:30:57.944Z,25.6
2022-08-21T12:31:55.066Z,25.6
2022-08-21T12:32:55.201Z,25.7
2022-08-21T12:33:55.058Z,25.7
2022-08-21T12:34:55.076Z,25.7
2022-08-21T12:35:55.075Z,25.7
2022-08-21T12:36:55.078Z,25.9
2022-08-21T12:37:55.133Z,25.9
2022-08-21T12:38:55.062Z,25.9
2022-08-21T12:39:55.127Z,25.9
2022-08-21T12:40:55.084Z,25.9
2022-08-21T12:41:56.991Z,25.9
2022-08-21T12:42:58.774Z,25.9
2022-08-21T12:43:55.068Z,25.7
2022-08-21T12:44:55.060Z,25.9
2022-08-21T12:45:55.066Z,25.7
2022-08-21T12:46:55.075Z,25.7
2022-08-21T12:47:55.082Z,25.7
2022-08-21T12:48:55.084Z,25.7
2022-08-21T12:49:55.070Z,25.7
2022-08-21T12:50:55.069Z,25.7
2022-08-21T12:51:55.072Z,25.7
2022-08-21T12:52:55.112Z,25.7
2022-08-21T12:53:55.058Z,25.7
2022-08-21T12:54:55.059Z,25.7
2022-08-21T12:55:55.068Z,25.7
2022-08-21T12:56:55.062Z,25.6
2022-08-21T12:57:55.071Z,25.6
2022-08-21T12:58:55.054Z,25.6
2022-08-21T12:59:55.099Z,25.6
2022-08-21T13:00:55.035Z,25.6
2022-08-21T13:01:55.131Z,25.6
2022-08-21T13:02:55.124Z,25.6
2022-08-21T13:04:03.928Z,25.6
2022-08-21T13:04:55.131Z,25.6
2022-08-21T13:05:55.097Z,25.7
2022-08-21T13:06:55.526Z,25.7
2022-08-21T13:07:55.828Z,25.7
2022-08-21T13:08:55.765Z,25.7
2022-08-21T13:09:56.147Z,25.7
2022-08-21T13:10:56.505Z,25.7
2022-08-21T13:11:55.061Z,25.7
2022-08-21T13:12:55.079Z,25.7
2022-08-21T13:13:55.057Z,25.7
2022-08-21T13:14:55.087Z,25.7
2022-08-21T13:15:55.066Z,25.9
2022-08-21T13:16:55.054Z,25.9
2022-08-21T13:17:55.060Z,25.9
2022-08-21T13:18:55.064Z,25.9
2022-08-21T13:19:55.115Z,25.9
2022-08-21T13:20:55.079Z,25.9
2022-08-21T13:21:55.088Z,25.9
2022-08-21T13:22:55.134Z,25.7